Station: Butlers Gorge  

  Atmospheric Gas Attenuation - ITU Rec 676-11   ----------------- dB/100km -----------------
Date Time Temp RH % AH g/m3 Dew Point Wind Direction Speed kph Gust kph Barometer mB Rainfall Since 9am 24GHz 47GHz 76GHz 122GHz 134GHz 241GHz
08/05 12:30 7.4 87 6.92 5.4 11 24 1013.1 0.2 16.3 25.0 36.0 94.3 83.5 285.3
08/05 12:20 7 86 6.67 4.8 19 22 1013.1 0.2 15.7 24.7 35.2 92.1 80.5 274.9
08/05 12:10 7 94 7.29 6.1 4 6 1013.1 0.2 17.1 25.7 37.8 98.9 89.0 304.5
08/05 12:00 6.7 91 6.92 5.3 11 20 1013.1 0.2 16.3 25.2 36.4 95.2 84.2 287.9
08/05 11:50 6.8 89 6.81 5.1 11 13 1013.1 0.2 16.1 25.0 35.9 93.8 82.6 282.2
08/05 11:40 7 90 6.98 5.5 9 13 1013.1 0.2 16.4 25.2 36.5 95.5 84.7 289.6
08/05 11:30 6.7 92 6.99 5.5 11 24 1013.1 0.2 16.5 25.3 36.6 96.0 85.2 291.2
08/05 11:20 6.5 92 6.9 5.3 15 17 1013.1 0.2 16.3 25.2 36.4 95.2 84.2 287.6
08/05 11:10 6.4 90 6.71 4.9 13 19 1013.1 0.2 15.9 24.9 35.6 93.2 81.7 278.9
08/05 11:00 6.4 88 6.56 4.6 17 30 1013.1 0.2 15.5 24.7 35.0 91.6 79.6 271.8
08/05 10:50 6.5 90 6.75 5 7 9 1013.1 0 15.9 24.9 35.7 93.5 82.1 280.5
08/05 10:40 6.6 90 6.8 5.1 11 17 1013.1 0 16.0 25.0 35.9 94.0 82.7 282.5
08/05 10:30 6.4 89 6.64 4.7 20 43 1013.1 0 15.7 24.8 35.3 92.5 80.7 275.6
08/05 10:20 6.3 90 6.67 4.8 20 24 1013.1 0 15.8 24.9 35.5 92.9 81.2 277.4
08/05 10:10 6.3 91 6.74 4.9 22 33 1013.1 0 15.9 25.0 35.8 93.7 82.2 280.7
08/05 10:00 6.2 92 6.77 5 20 39 1013.1 0 16.0 25.1 36.0 94.1 82.7 282.5
08/05 09:50 6 90 6.54 4.5 17 20 1013.1 0 15.5 24.7 35.1 91.8 79.8 272.2
08/05 09:40 6 89 6.46 4.3 17 22 1013.1 0 15.3 24.6 34.8 91.0 78.7 268.4
08/05 09:30 5.8 92 6.59 4.6 13 26 1013.1 0 15.6 24.9 35.4 92.6 80.7 275.3
08/05 09:20 5.8 91 6.52 4.4 11 13 1013.1 0 15.5 24.8 35.1 91.8 79.7 272.0
08/05 09:10 5.8 88 6.31 4 26 33 1013.1 0 15.0 24.4 34.2 89.5 76.9 262.0
08/05 09:00 5.9 91 6.57 4.5 19 44 1013.1 0 15.6 24.8 35.3 92.3 80.3 274.0
08/05 08:50 5.5 93 6.54 4.5 19 22 1013.1 21.2 15.5 24.9 35.3 92.4 80.3 274.0
08/05 08:40 5.5 91 6.4 4.2 11 17 1013.1 21.2 15.2 24.6 34.7 90.9 78.4 267.3
08/05 08:30 5.6 92 6.51 4.4 13 26 1013.1 21.2 15.5 24.8 35.2 92.0 79.8 272.2
08/05 08:20 5.5 91 6.4 4.2 9 13 1013.1 21.2 15.2 24.6 34.7 90.9 78.4 267.3
08/05 08:10 5.5 91 6.4 4.2 9 11 1013.1 21.2 15.2 24.6 34.7 90.9 78.4 267.3
08/05 08:00 5.3 93 6.45 4.3 13 32 1013.1 21.2 15.3 24.8 35.0 91.7 79.3 270.4
08/05 07:50 5.2 92 6.34 4 17 19 1013.1 21.2 15.1 24.6 34.6 90.6 77.9 265.5
08/05 07:40 5.3 91 6.31 4 11 13 1013.1 21.2 15.0 24.5 34.5 90.1 77.4 263.7
08/05 07:30 5.4 92 6.42 4.2 19 32 1013.1 21.2 15.3 24.7 34.9 91.2 78.8 268.6
08/05 07:20 5.4 93 6.49 4.4 11 15 1013.1 21.2 15.4 24.8 35.2 92.0 79.7 271.9
08/05 07:10 5.5 91 6.4 4.2 22 33 1013.1 21 15.2 24.6 34.7 90.9 78.4 267.3
08/05 07:00 5.6 90 6.37 4.1 22 41 1013.1 21 15.2 24.6 34.6 90.4 77.9 265.5
08/05 06:50 5.7 88 6.27 3.9 35 50 1013.1 21 14.9 24.4 34.1 89.2 76.4 260.5
08/05 06:40 5.8 90 6.45 4.3 11 17 1013.1 20.8 15.3 24.6 34.8 91.1 78.8 268.6
08/05 06:30 5.8 90 6.45 4.3 7 19 1013.1 20.8 15.3 24.6 34.8 91.1 78.8 268.6
08/05 06:20 5.8 90 6.45 4.3 9 11 1013.1 20.8 15.3 24.6 34.8 91.1 78.8 268.6
08/05 06:10 5.8 91 6.52 4.4 9 11 1013.1 20.8 15.5 24.8 35.1 91.8 79.7 272.0
08/05 06:00 5.8 90 6.45 4.3 17 37 1013.1 20.6 15.3 24.6 34.8 91.1 78.8 268.6
08/05 05:50 5.8 89 6.38 4.1 30 37 1013.1 20.6 15.2 24.5 34.5 90.3 77.8 265.3
08/05 05:40 5.7 88 6.27 3.9 20 32 1013.1 20.6 14.9 24.4 34.1 89.2 76.4 260.5
08/05 05:30 5.6 89 6.3 3.9 20 44 1013.1 20.4 15.0 24.4 34.3 89.7 76.9 262.2
08/05 05:20 5.7 89 6.34 4 19 24 1013.1 20.4 15.1 24.5 34.4 90.0 77.4 263.8
08/05 05:10 5.8 91 6.52 4.4 33 44 1013.1 20.4 15.5 24.8 35.1 91.8 79.7 272.0
08/05 05:00 5.5 94 6.61 4.6 13 28 1013.1 20.4 15.7 25.0 35.6 93.2 81.3 277.3
08/05 04:50 5.6 92 6.51 4.4 17 20 1013.1 20.2 15.5 24.8 35.2 92.0 79.8 272.2
08/05 04:40 5.6 91 6.44 4.2 24 28 1013.1 20 15.3 24.7 34.9 91.2 78.8 268.9
08/05 04:30 5.5 92 6.47 4.3 15 24 1013.1 19.8 15.4 24.8 35.0 91.6 79.3 270.6
08/05 04:20 5.5 90 6.33 4 15 20 1013.1 19.4 15.1 24.5 34.5 90.1 77.4 264.0
08/05 04:10 5.6 89 6.3 3.9 15 19 1013.1 19.4 15.0 24.4 34.3 89.7 76.9 262.2
08/05 04:00 5.8 89 6.38 4.1 17 30 1013.1 19.2 15.2 24.5 34.5 90.3 77.8 265.3
08/05 03:50 5.7 89 6.34 4 13 17 1013.1 19 15.1 24.5 34.4 90.0 77.4 263.8
08/05 03:40 5.7 88 6.27 3.9 17 22 1013.1 18.8 14.9 24.4 34.1 89.2 76.4 260.5
08/05 03:30 5.8 86 6.16 3.6 19 43 1013.1 18.8 14.7 24.2 33.6 87.9 74.9 254.9
08/05 03:20 5.9 84 6.06 3.4 28 37 1013.1 18.8 14.5 24.0 33.2 86.7 73.4 249.9
08/05 03:10 5.8 86 6.16 3.6 17 30 1013.1 18.6 14.7 24.2 33.6 87.9 74.9 254.9
08/05 03:00 5.9 88 6.35 4.1 17 39 1013.1 18.6 15.1 24.4 34.4 89.9 77.3 263.6
08/05 02:50 6 87 6.32 4 15 20 1013.1 18.6 15.0 24.4 34.2 89.4 76.8 261.8
08/05 02:40 6.1 91 6.65 4.7 17 24 1013.1 18.6 15.7 24.9 35.5 92.9 81.2 277.1
08/05 02:30 6.2 90 6.62 4.7 15 33 1013.1 18.6 15.7 24.8 35.3 92.5 80.7 275.3
08/05 02:20 6 88 6.39 4.2 13 17 1013.1 18.4 15.2 24.5 34.5 90.2 77.8 265.1
08/05 02:10 6 90 6.54 4.5 13 17 1013.1 18 15.5 24.7 35.1 91.8 79.8 272.2
08/05 02:00 6 88 6.39 4.2 13 24 1013.1 17.8 15.2 24.5 34.5 90.2 77.8 265.1
08/05 01:50 6 86 6.25 3.8 13 24 1013.1 17.6 14.9 24.3 33.9 88.7 75.9 258.5
08/05 01:40 6.1 83 6.07 3.4 11 24 1013.1 17.6 14.5 23.9 33.1 86.6 73.4 249.8
08/05 01:30 6 87 6.32 4 17 39 1013.1 17.6 15.0 24.4 34.2 89.4 76.8 261.8
08/05 01:20 6.1 90 6.58 4.6 17 33 1013.1 17.4 15.6 24.8 35.2 92.2 80.2 273.8
08/05 01:10 6.1 90 6.58 4.6 11 15 1013.1 17.4 15.6 24.8 35.2 92.2 80.2 273.8
08/05 01:00 5.9 89 6.42 4.2 13 32 1013.1 17 15.3 24.6 34.6 90.6 78.3 266.9
08/05 00:50 6.2 85 6.25 3.9 19 28 1013.1 17 14.9 24.2 33.8 88.4 75.7 257.9
08/05 00:40 6.3 88 6.52 4.5 19 20 1013.1 17 15.5 24.6 34.9 91.3 79.2 270.2
08/05 00:30 6.4 90 6.71 4.9 17 33 1013.1 16.8 15.9 24.9 35.6 93.2 81.7 278.9
08/05 00:20 6.7 86 6.54 4.5 17 26 1013.1 16.4 15.5 24.5 34.8 91.0 79.1 269.8
08/05 00:10 7 81 6.28 4 30 44 1013.1 16.4 14.9 24.0 33.6 87.9 75.3 256.6
08/05 00:00 6.9 86 6.62 4.7 20 39 1013.1 16.4 15.6 24.6 35.0 91.6 79.9 272.9
07/05 23:50 7.3 85 6.72 4.9 28 43 1013.1 16.4 15.8 24.7 35.3 92.3 80.9 276.2
07/05 23:40 7 90 6.98 5.5 11 15 1013.1 16.4 16.4 25.2 36.5 95.5 84.7 289.6
07/05 23:30 7.5 87 6.97 5.5 22 35 1013.1 15.8 16.4 25.0 36.2 94.8 84.0 287.3
07/05 23:20 7.7 86 6.98 5.5 35 46 1013.1 15.6 16.4 25.0 36.1 94.6 83.9 287.0
07/05 23:10 8 89 7.36 6.3 28 33 1013.1 15.6 17.2 25.5 37.6 98.4 88.8 304.0
07/05 23:00 8.1 92 7.66 6.9 19 39 1013.1 15.2 17.8 26.0 38.8 101.6 92.8 318.0
07/05 22:50 8.1 92 7.66 6.9 15 22 1013.1 15.2 17.8 26.0 38.8 101.6 92.8 318.0
07/05 22:40 8.2 90 7.54 6.7 19 26 1013.1 14.4 17.6 25.8 38.2 100.2 91.0 311.8
07/05 22:30 8.1 92 7.66 6.9 13 32 1013.1 14 17.8 26.0 38.8 101.6 92.8 318.0
07/05 22:20 7.8 94 7.67 6.9 19 24 1013.1 13.8 17.9 26.1 39.0 102.2 93.3 319.7
07/05 22:10 7.8 93 7.59 6.7 7 9 1013.1 13.2 17.7 26.0 38.6 101.3 92.2 315.8
07/05 22:00 7.9 89 7.31 6.2 13 24 1013.1 12.4 17.1 25.5 37.4 98.0 88.2 302.0
07/05 21:50 7.6 93 7.5 6.5 9 11 1013.1 12 17.5 25.9 38.3 100.5 91.2 312.3
07/05 21:40 7.8 90 7.35 6.3 7 11 1013.1 11.2 17.2 25.6 37.6 98.6 88.9 304.3
07/05 21:30 7.8 91 7.43 6.4 13 26 1013.1 11.2 17.4 25.7 38.0 99.5 90.0 308.1
07/05 21:20 7.6 93 7.5 6.5 11 17 1013.1 11.2 17.5 25.9 38.3 100.5 91.2 312.3
07/05 21:10 7.6 93 7.5 6.5 15 26 1013.1 11 17.5 25.9 38.3 100.5 91.2 312.3
07/05 21:00 7.1 96 7.49 6.5 11 20 1013.1 10.8 17.5 26.0 38.5 101.0 91.6 313.8
07/05 20:50 6.9 96 7.39 6.3 11 15 1013.1 10.4 17.3 25.9 38.2 100.2 90.5 309.7
07/05 20:40 6.8 95 7.27 6.1 7 9 1013.1 10 17.1 25.7 37.8 99.0 88.9 304.3
07/05 20:30 6.8 95 7.27 6.1 11 19 1013.1 9.8 17.1 25.7 37.8 99.0 88.9 304.3
07/05 20:20 6.3 96 7.11 5.7 7 9 1013.1 9.4 16.7 25.6 37.3 97.8 87.3 298.5
07/05 20:10 6.2 96 7.06 5.6 6 7 1013.1 9.2 16.6 25.5 37.2 97.4 86.7 296.5
07/05 20:00 5.7 98 6.98 5.4 7 19 1013.1 9.2 16.5 25.6 37.1 97.1 86.1 294.5

Last Refresh: 08-May-2026 12:08:02

Bureau of Meteorology